Time;durP1;ratioP1;P1;durP2;ratioP2;P2;SDS_P1;SDS_P2;PMS_P1;PMS_P2;Temp;Humidity;BMP_temperature;BMP_pressure;BME280_temperature;BME280_humidity;BME280_pressure;Samples;Min_cycle;Max_cycle;Signal;HPM_P1;HPM_P2
2022/02/09 00:02:39;;;;;;;33.75;19.15;;;9.60;99.90;;;;;;5113839;28;20393;-75
2022/02/09 00:07:33;;;;;;;33.45;17.85;;;9.60;99.90;;;;;;5113644;28;20412;-75
2022/02/09 00:09:59;;;;;;;29.98;17.05;;;9.70;99.90;;;;;;5113746;28;20132;-76
2022/02/09 00:12:32;;;;;;;29.92;16.50;;;9.70;99.90;;;;;;5113643;28;20062;-74
2022/02/09 00:17:38;;;;;;;30.90;16.88;;;9.80;99.90;;;;;;5114135;28;20031;-75
2022/02/09 00:32:55;;;;;;;29.92;15.77;;;9.70;99.90;;;;;;5113781;28;20063;-74
2022/02/09 01:00:08;;;;;;;28.15;15.50;;;9.70;99.90;;;;;;5113015;28;20031;-74
2022/02/09 01:11:23;;;;;;;28.50;15.43;;;9.80;99.90;;;;;;5113118;28;20023;-75
2022/02/09 01:57:18;;;;;;;26.80;13.68;;;9.70;99.90;;;;;;5099677;28;20564;-74
2022/02/09 01:59:46;;;;;;;28.42;15.30;;;9.70;99.90;;;;;;5116069;28;20023;-74
2022/02/09 02:02:12;;;;;;;28.58;15.90;;;9.60;99.90;;;;;;5115893;28;20088;-75
2022/02/09 02:04:39;;;;;;;28.52;13.40;;;9.70;99.90;;;;;;5115484;28;20051;-74
2022/02/09 02:07:12;;;;;;;32.33;15.50;;;9.70;99.90;;;;;;5115866;28;20027;-76
2022/02/09 02:09:39;;;;;;;26.30;13.80;;;9.70;99.90;;;;;;5115887;28;20484;-73
2022/02/09 02:12:13;;;;;;;30.90;15.85;;;9.60;99.90;;;;;;5115777;28;20020;-74
2022/02/09 02:14:54;;;;;;;27.95;14.90;;;9.60;99.90;;;;;;5116119;28;20103;-75
2022/02/09 02:17:41;;;;;;;32.03;15.43;;;9.60;99.90;;;;;;5115754;28;20030;-74
2022/02/09 02:20:27;;;;;;;28.13;15.10;;;9.70;99.90;;;;;;5115691;28;20497;-74
2022/02/09 02:23:26;;;;;;;33.55;17.40;;;9.70;99.90;;;;;;5113488;28;20420;-75
2022/02/09 02:26:05;;;;;;;35.13;18.17;;;9.80;99.90;;;;;;5115315;28;20385;-73
2022/02/09 02:33:50;;;;;;;34.08;19.45;;;9.70;99.90;;;;;;5115741;28;20164;-73
2022/02/09 03:12:16;;;;;;;35.72;18.35;;;9.80;99.90;;;;;;5114932;28;20034;-76
2022/02/09 03:15:00;;;;;;;39.13;18.75;;;9.80;99.90;;;;;;5115210;28;20541;-74
2022/02/09 03:17:34;;;;;;;38.97;18.58;;;9.70;99.90;;;;;;5114849;28;20389;-74
2022/02/09 03:20:06;;;;;;;34.72;18.70;;;9.70;99.90;;;;;;5114840;28;20027;-74
2022/02/09 03:25:50;;;;;;;37.13;19.25;;;9.70;99.90;;;;;;5114360;28;20076;-75
2022/02/09 03:31:34;;;;;;;37.88;18.83;;;9.60;99.90;;;;;;5114001;28;20031;-75
2022/02/09 03:57:29;;;;;;;37.53;16.88;;;9.50;99.90;;;;;;5114230;28;20031;-73
2022/02/09 03:59:59;;;;;;;31.35;14.85;;;9.50;99.90;;;;;;5112282;28;20435;-75
2022/02/09 04:02:26;;;;;;;32.67;16.00;;;9.50;99.90;;;;;;5113808;28;20116;-74
2022/02/09 04:04:56;;;;;;;29.00;16.33;;;9.60;99.90;;;;;;5113287;28;20409;-74
2022/02/09 04:07:22;;;;;;;30.25;15.60;;;9.60;99.90;;;;;;5112776;28;20034;-74
2022/02/09 04:09:51;;;;;;;34.92;16.58;;;9.60;99.90;;;;;;5114027;28;20098;-73
2022/02/09 04:14:56;;;;;;;32.20;15.25;;;9.60;99.90;;;;;;5114027;28;20068;-75
2022/02/09 04:17:36;;;;;;;34.35;17.25;;;9.60;99.90;;;;;;5112156;28;20038;-75
2022/02/09 04:38:46;;;;;;;28.83;13.98;;;9.50;99.90;;;;;;5113972;28;20032;-75
2022/02/09 04:49:32;;;;;;;27.17;14.20;;;9.40;99.90;;;;;;5117519;28;20034;-75
2022/02/09 04:52:20;;;;;;;26.98;13.45;;;9.20;99.90;;;;;;5117280;28;20027;-75
2022/02/09 04:54:53;;;;;;;29.05;14.18;;;9.20;99.90;;;;;;5115985;28;20032;-75
2022/02/09 05:03:23;;;;;;;32.63;15.25;;;9.40;99.90;;;;;;5117293;28;20027;-75
2022/02/09 05:17:44;;;;;;;33.17;15.50;;;9.30;99.90;;;;;;5116825;28;20060;-75
2022/02/09 05:22:18;;;;;;;30.63;13.35;;;9.50;99.90;;;;;;5117341;28;20114;-75
2022/02/09 05:30:13;;;;;;;31.58;15.35;;;9.60;99.90;;;;;;5116391;28;20432;-74
2022/02/09 05:32:39;;;;;;;31.27;15.27;;;9.60;99.90;;;;;;5116644;28;20016;-75
2022/02/09 05:35:05;;;;;;;33.60;15.18;;;9.60;99.90;;;;;;5116543;28;20051;-73
2022/02/09 05:37:31;;;;;;;33.17;14.52;;;9.60;99.90;;;;;;5117053;28;20016;-75
2022/02/09 05:39:56;;;;;;;34.28;14.48;;;9.60;99.90;;;;;;5116172;28;20096;-76
2022/02/09 05:42:22;;;;;;;31.55;14.93;;;9.70;99.90;;;;;;5115108;28;20525;-74
2022/02/09 05:44:48;;;;;;;28.15;13.70;;;9.60;99.90;;;;;;5116341;28;20027;-75
2022/02/09 05:50:13;;;;;;;22.80;11.45;;;9.50;99.90;;;;;;5116593;28;20027;-76
2022/02/09 05:55:43;;;;;;;26.90;13.35;;;9.50;99.90;;;;;;5116605;28;20034;-75
2022/02/09 05:58:07;;;;;;;25.52;12.57;;;9.40;99.90;;;;;;5114585;28;20036;-75
2022/02/09 06:00:32;;;;;;;25.05;12.48;;;9.40;99.90;;;;;;5114602;28;20118;-76
2022/02/09 06:03:01;;;;;;;26.45;12.65;;;9.40;99.90;;;;;;5115836;28;20074;-75
2022/02/09 06:05:27;;;;;;;30.27;13.40;;;9.30;99.90;;;;;;5116259;28;20027;-76
2022/02/09 06:07:54;;;;;;;31.45;14.20;;;9.30;99.90;;;;;;5115844;28;20493;-74
2022/02/09 06:10:26;;;;;;;26.92;13.65;;;9.30;99.90;;;;;;5115937;28;20050;-74
2022/02/09 06:13:06;;;;;;;24.55;11.90;;;9.00;99.90;;;;;;5116174;28;20020;-75
2022/02/09 06:16:05;;;;;;;26.05;13.95;;;9.00;99.90;;;;;;5114255;28;20481;-75
2022/02/09 06:21:19;;;;;;;26.15;12.82;;;9.20;99.90;;;;;;5115943;28;20039;-75
2022/02/09 06:23:46;;;;;;;29.33;13.35;;;9.20;99.90;;;;;;5115571;28;20132;-73
2022/02/09 06:26:11;;;;;;;29.10;13.73;;;9.30;99.90;;;;;;5115585;28;20068;-73
2022/02/09 06:28:37;;;;;;;37.63;21.50;;;9.30;99.90;;;;;;5115783;28;20023;-77
2022/02/09 06:31:03;;;;;;;38.38;22.08;;;9.30;99.90;;;;;;5115417;28;20379;-74
2022/02/09 06:33:29;;;;;;;31.98;18.30;;;9.40;99.90;;;;;;5115718;28;20054;-76
2022/02/09 06:35:57;;;;;;;26.00;13.38;;;9.40;99.90;;;;;;5115379;28;20024;-75
2022/02/09 06:38:23;;;;;;;23.58;12.95;;;9.40;99.90;;;;;;5115648;28;20107;-74
2022/02/09 06:40:53;;;;;;;23.77;13.18;;;9.30;99.90;;;;;;5115278;28;20055;-74
2022/02/09 06:43:19;;;;;;;;;;;9.40;99.90;;;;;;5114157;28;20070;-74
2022/02/09 06:45:45;;;;;;;26.77;12.82;;;9.40;99.90;;;;;;5115165;28;20338;-75
2022/02/09 06:48:12;;;;;;;25.88;12.10;;;9.40;99.90;;;;;;5115098;28;20048;-74
2022/02/09 06:50:41;;;;;;;25.55;12.38;;;9.50;99.90;;;;;;5115081;28;20020;-76
2022/02/09 06:56:22;;;;;;;29.85;12.05;;;9.50;99.90;;;;;;5115232;28;20076;-73
2022/02/09 07:01:04;;;;;;;34.47;13.48;;;9.40;99.90;;;;;;5115539;28;20027;-74
2022/02/09 07:03:30;;;;;;;25.35;13.05;;;9.40;99.90;;;;;;5114650;28;20115;-75
2022/02/09 07:05:56;;;;;;;27.23;13.00;;;9.30;99.90;;;;;;5114965;28;20122;-74
2022/02/09 07:08:21;;;;;;;31.52;14.35;;;9.20;99.90;;;;;;5114817;28;20023;-75
2022/02/09 07:10:47;;;;;;;23.90;11.93;;;9.10;99.90;;;;;;5114939;28;20381;-75
2022/02/09 07:13:14;;;;;;;24.58;12.45;;;9.10;99.90;;;;;;5114646;28;20047;-75
2022/02/09 07:15:44;;;;;;;25.35;13.10;;;9.10;99.90;;;;;;5114614;28;20026;-75
2022/02/09 07:18:13;;;;;;;23.90;11.27;;;9.10;99.90;;;;;;5113882;28;20031;-74
2022/02/09 07:23:18;;;;;;;28.58;12.50;;;9.20;99.90;;;;;;5114501;28;20382;-75
2022/02/09 07:25:48;;;;;;;29.08;14.13;;;9.30;99.90;;;;;;5112799;28;20035;-75
2022/02/09 07:28:15;;;;;;;32.70;14.27;;;9.30;99.90;;;;;;5114668;28;20027;-76
2022/02/09 07:30:43;;;;;;;21.67;11.65;;;9.30;99.90;;;;;;5114588;28;20112;-75
2022/02/09 07:33:09;;;;;;;26.85;12.75;;;9.30;99.90;;;;;;5114571;28;20023;-75
2022/02/09 07:35:38;;;;;;;27.60;13.73;;;9.30;99.90;;;;;;5114263;28;20401;-76
2022/02/09 07:38:04;;;;;;;25.42;12.85;;;9.10;99.90;;;;;;5114214;28;20077;-75
2022/02/09 07:40:30;;;;;;;27.60;13.75;;;9.00;99.90;;;;;;5114413;28;20020;-75
2022/02/09 07:43:01;;;;;;;28.63;14.52;;;9.00;99.90;;;;;;5114079;28;20034;-76
2022/02/09 07:45:44;;;;;;;28.42;14.00;;;8.90;99.90;;;;;;5114288;28;20485;-74
2022/02/09 07:51:13;;;;;;;32.10;14.55;;;8.70;99.90;;;;;;5114362;28;20023;-74
2022/02/09 07:53:45;;;;;;;32.00;15.52;;;8.40;99.90;;;;;;5113785;28;20027;-75
2022/02/09 07:56:11;;;;;;;27.20;13.55;;;8.50;99.90;;;;;;5114294;28;20020;-74
2022/02/09 07:58:37;;;;;;;31.58;15.55;;;8.70;99.90;;;;;;5113874;28;20069;-75
2022/02/09 08:01:03;;;;;;;33.08;16.40;;;8.80;99.90;;;;;;5113846;28;20549;-73
2022/02/09 08:03:28;;;;;;;31.42;15.70;;;8.60;99.90;;;;;;5113589;28;20048;-74
2022/02/09 08:05:54;;;;;;;29.33;13.38;;;8.70;99.90;;;;;;5113693;28;20362;-76
2022/02/09 08:08:20;;;;;;;28.33;13.57;;;8.60;99.90;;;;;;5113755;28;20024;-73
2022/02/09 08:10:53;;;;;;;32.30;14.07;;;8.80;99.90;;;;;;5113966;28;20023;-73
2022/02/09 08:25:21;;;;;;;28.67;12.95;;;9.10;99.90;;;;;;5113561;28;20038;-73
2022/02/09 08:27:20;;;;;;;28.55;13.50;;;9.10;99.90;;;;;;5113313;28;20027;-75
2022/02/09 08:30:04;;;;;;;23.30;11.95;;;8.90;99.90;;;;;;5112003;28;20069;-73
2022/02/09 08:34:59;;;;;;;25.40;13.20;;;8.90;99.90;;;;;;5113508;28;20096;-73
2022/02/09 08:37:25;;;;;;;27.02;13.43;;;8.90;99.90;;;;;;5113506;28;20031;-74
2022/02/09 08:39:53;;;;;;;29.15;12.95;;;8.60;99.90;;;;;;5113473;28;20554;-76
2022/02/09 08:42:19;;;;;;;30.20;13.90;;;8.70;99.90;;;;;;5113707;28;20027;-74
2022/02/09 08:44:45;;;;;;;26.83;13.52;;;8.80;99.90;;;;;;5113641;28;20028;-76
2022/02/09 08:47:12;;;;;;;26.63;12.40;;;8.70;99.90;;;;;;5113661;28;20376;-75
2022/02/09 08:49:38;;;;;;;21.20;11.95;;;8.80;99.90;;;;;;5113600;28;20085;-74
2022/02/09 08:52:05;;;;;;;23.23;12.32;;;8.90;99.90;;;;;;5113301;28;20019;-72
2022/02/09 08:54:32;;;;;;;26.50;12.88;;;9.00;99.90;;;;;;5113754;28;20052;-75
2022/02/09 08:57:02;;;;;;;26.33;14.43;;;8.80;99.90;;;;;;5113559;28;20030;-74
2022/02/09 08:59:28;;;;;;;25.30;12.38;;;8.40;99.90;;;;;;5113261;28;20047;-75
2022/02/09 09:02:02;;;;;;;27.00;13.88;;;8.30;99.90;;;;;;5113242;28;20035;-74
2022/02/09 09:04:40;;;;;;;29.60;13.40;;;8.50;99.90;;;;;;5113095;28;20044;-76
2022/02/09 09:07:06;;;;;;;21.17;12.43;;;8.20;99.90;;;;;;5111656;28;20072;-73
2022/02/09 09:17:54;;;;;;;24.35;12.88;;;8.50;99.90;;;;;;5113427;28;20030;-75
2022/02/09 10:32:02;;;;;;;23.02;11.65;;;8.40;99.90;;;;;;5116094;28;20023;-76
2022/02/09 10:34:29;;;;;;;25.65;12.10;;;8.20;99.90;;;;;;5115247;28;20035;-74
2022/02/09 10:37:05;;;;;;;26.15;11.88;;;8.20;99.90;;;;;;5115714;28;20492;-76
2022/02/09 10:42:21;;;;;;;27.95;12.80;;;8.10;99.90;;;;;;5115235;28;20035;-74
2022/02/09 10:44:53;;;;;;;25.05;12.25;;;8.30;99.90;;;;;;5115005;28;20024;-75
2022/02/09 10:47:25;;;;;;;20.27;11.75;;;8.40;99.90;;;;;;5115475;28;20015;-75
2022/02/09 10:50:23;;;;;;;26.60;12.70;;;8.40;99.90;;;;;;5115698;28;20462;-76
2022/02/09 10:52:49;;;;;;;20.88;10.88;;;8.50;99.90;;;;;;5115698;28;20019;-75
2022/02/09 10:55:37;;;;;;;22.02;10.63;;;8.60;99.90;;;;;;5114972;28;20076;-75
2022/02/09 10:58:07;;;;;;;23.48;12.15;;;8.90;99.90;;;;;;5115275;28;20036;-75
2022/02/09 11:00:33;;;;;;;31.42;11.50;;;8.80;99.90;;;;;;5115446;28;20034;-75
2022/02/09 11:02:59;;;;;;;22.33;11.63;;;8.70;99.90;;;;;;5114702;28;20519;-74
2022/02/09 11:05:26;;;;;;;26.70;12.60;;;8.50;99.90;;;;;;5115026;28;20038;-75
2022/02/09 11:07:54;;;;;;;25.50;11.82;;;8.60;99.90;;;;;;5115042;28;20081;-75
2022/02/09 11:10:20;;;;;;;23.45;12.52;;;8.60;99.90;;;;;;5114707;28;20028;-75
2022/02/09 11:12:46;;;;;;;23.98;12.05;;;8.70;99.90;;;;;;5113669;28;20022;-75
2022/02/09 11:15:17;;;;;;;22.65;12.35;;;8.90;99.90;;;;;;5114674;28;20106;-76
2022/02/09 11:17:47;;;;;;;25.10;12.10;;;9.00;99.90;;;;;;5114911;28;20067;-75
2022/02/09 11:20:26;;;;;;;20.63;11.48;;;9.00;99.90;;;;;;5114544;27;20036;-75
2022/02/09 11:22:52;;;;;;;22.75;11.98;;;9.10;99.90;;;;;;5114826;28;20020;-75
2022/02/09 11:25:28;;;;;;;23.25;11.23;;;9.10;99.90;;;;;;5113098;28;20034;-75
2022/02/09 11:28:16;;;;;;;24.30;11.90;;;8.70;99.90;;;;;;5114728;28;20435;-74
2022/02/09 11:31:10;;;;;;;23.75;12.32;;;8.70;99.90;;;;;;5113118;28;20023;-75
2022/02/09 11:33:56;;;;;;;21.15;12.00;;;8.70;99.90;;;;;;5114908;28;20092;-75
2022/02/09 11:38:55;;;;;;;25.23;12.43;;;9.10;99.90;;;;;;5114200;28;20072;-75
2022/02/09 11:41:28;;;;;;;23.65;12.65;;;9.00;99.90;;;;;;5114535;28;20028;-75
2022/02/09 11:44:01;;;;;;;23.48;12.27;;;9.00;99.90;;;;;;5114448;28;20024;-76
2022/02/09 11:46:47;;;;;;;22.15;12.93;;;9.10;99.90;;;;;;5114415;28;20020;-76
2022/02/09 11:49:40;;;;;;;26.23;15.35;;;9.00;99.90;;;;;;5112561;28;20031;-76
2022/02/09 11:52:44;;;;;;;23.38;11.80;;;8.90;99.90;;;;;;5113843;28;20030;-76
2022/02/09 12:09:35;;;;;;;18.30;10.80;;;9.00;99.90;;;;;;5113827;28;20039;-75
2022/02/09 12:12:06;;;;;;;20.48;11.27;;;9.00;99.90;;;;;;5112214;28;20027;-75
2022/02/09 12:23:02;;;;;;;19.38;10.57;;;9.10;99.90;;;;;;5113342;28;20096;-75
2022/02/09 12:25:45;;;;;;;21.08;10.45;;;9.30;99.90;;;;;;5113561;28;20047;-74
2022/02/09 12:28:18;;;;;;;20.83;11.20;;;9.30;99.90;;;;;;5113861;28;20019;-77
2022/02/09 12:30:45;;;;;;;22.55;10.88;;;9.40;99.90;;;;;;5112247;28;20449;-76
2022/02/09 12:33:22;;;;;;;28.88;14.55;;;9.50;99.90;;;;;;5113552;28;20534;-75
2022/02/09 12:35:48;;;;;;;25.02;12.15;;;9.70;99.90;;;;;;5113563;28;20031;-76
2022/02/09 12:38:13;;;;;;;21.77;13.02;;;9.80;99.90;;;;;;5113474;28;20035;-76
2022/02/09 12:40:39;;;;;;;20.45;11.65;;;9.70;99.90;;;;;;5113439;28;20104;-76
2022/02/09 12:43:08;;;;;;;20.40;10.48;;;9.70;99.90;;;;;;5113665;28;20051;-75
2022/02/09 12:45:36;;;;;;;21.92;12.23;;;9.80;99.90;;;;;;5113331;28;20055;-75
2022/02/09 12:48:05;;;;;;;21.00;11.02;;;9.90;99.90;;;;;;5113703;28;20020;-77
2022/02/09 12:50:35;;;;;;;19.60;11.38;;;9.90;99.90;;;;;;5113371;28;20040;-76
2022/02/09 12:53:04;;;;;;;19.70;10.65;;;9.90;99.90;;;;;;5113663;28;20064;-75
2022/02/09 12:55:33;;;;;;;18.90;10.20;;;10.00;99.90;;;;;;5113319;28;20051;-75
2022/02/09 12:58:08;;;;;;;20.40;11.27;;;10.00;99.90;;;;;;5113880;28;20028;-76
2022/02/09 13:00:41;;;;;;;19.20;11.10;;;10.10;99.90;;;;;;5113237;28;20023;-83
2022/02/09 13:03:24;;;;;;;19.38;10.68;;;10.00;99.90;;;;;;5113218;28;20046;-79
2022/02/09 13:05:57;;;;;;;20.58;11.18;;;9.50;99.90;;;;;;5113100;28;20024;-73
2022/02/09 13:08:28;;;;;;;21.85;11.85;;;9.50;99.90;;;;;;5104916;28;20020;-76
2022/02/09 13:11:16;;;;;;;19.92;11.38;;;9.30;99.90;;;;;;5107506;28;20023;-74
2022/02/09 13:13:45;;;;;;;19.67;10.98;;;9.30;99.90;;;;;;5117065;28;20051;-76
2022/02/09 13:16:21;;;;;;;17.95;10.50;;;9.30;99.90;;;;;;5115395;28;20016;-77
2022/02/09 13:19:45;;;;;;;19.58;10.98;;;9.60;99.90;;;;;;5094972;28;20028;-76
2022/02/09 13:23:13;;;;;;;19.70;10.90;;;9.50;99.90;;;;;;5093968;28;20498;-78
2022/02/09 13:53:34;;;;;;;18.85;10.73;;;9.90;99.90;;;;;;5096186;28;20026;-76
2022/02/09 14:52:44;;;;;;;20.15;10.73;;;10.00;99.90;;;;;;5094471;28;20066;-75
2022/02/09 14:57:48;;;;;;;18.60;10.63;;;10.00;99.90;;;;;;5094729;28;20084;-75
2022/02/09 15:00:20;;;;;;;16.35;10.13;;;10.00;99.90;;;;;;5093007;28;20024;-77
2022/02/09 15:12:49;;;;;;;20.10;10.80;;;10.00;99.90;;;;;;5115552;28;20106;-74
2022/02/09 15:20:47;;;;;;;53.42;29.90;;;10.10;99.90;;;;;;5114084;28;20020;-78
2022/02/09 15:23:04;;;;;;;25.20;13.77;;;10.10;99.90;;;;;;5114059;28;20036;-76
2022/02/09 15:25:33;;;;;;;29.42;15.13;;;10.20;99.90;;;;;;5114657;28;20045;-75
2022/02/09 15:28:01;;;;;;;24.97;11.70;;;10.20;99.90;;;;;;5114702;28;20043;-78
2022/02/09 15:30:31;;;;;;;18.80;10.63;;;10.10;99.90;;;;;;5112998;28;20024;-74
2022/02/09 15:32:59;;;;;;;17.52;11.05;;;10.10;99.90;;;;;;5114337;28;20020;-75
2022/02/09 15:35:34;;;;;;;18.17;10.15;;;10.20;99.90;;;;;;5114612;27;20063;-75
2022/02/09 15:38:07;;;;;;;17.23;10.35;;;10.20;99.90;;;;;;5112709;28;20026;-74
2022/02/09 15:40:38;;;;;;;17.90;10.18;;;10.20;99.90;;;;;;5113321;28;20490;-75
2022/02/09 16:22:39;;;;;;;17.67;10.48;;;9.70;99.90;;;;;;5113740;28;20504;-74
2022/02/09 16:25:20;;;;;;;21.23;12.13;;;9.60;99.90;;;;;;5113571;28;20080;-74
2022/02/09 16:34:04;;;;;;;23.95;10.77;;;9.70;99.90;;;;;;5113813;28;20046;-74
2022/02/09 16:44:17;;;;;;;18.42;10.18;;;9.60;99.90;;;;;;5113762;28;20076;-74
2022/02/09 16:47:03;;;;;;;19.05;11.00;;;9.30;99.90;;;;;;5118164;28;20026;-74
2022/02/09 16:49:43;;;;;;;21.35;11.05;;;9.30;99.90;;;;;;5117537;28;20027;-74
2022/02/09 16:52:18;;;;;;;21.95;11.48;;;9.30;99.90;;;;;;5115957;28;20121;-75
2022/02/09 17:08:25;;;;;;;25.33;14.38;;;9.40;99.90;;;;;;5117334;28;20119;-74
2022/02/09 17:11:16;;;;;;;22.08;12.57;;;9.70;99.90;;;;;;5117504;28;20389;-75
2022/02/09 17:15:26;;;;;;;25.15;12.98;;;9.70;99.90;;;;;;5116552;28;20032;-74
2022/02/09 17:19:24;;;;;;;19.45;10.55;;;9.70;99.90;;;;;;5117302;28;20034;-75
2022/02/09 17:21:49;;;;;;;17.88;10.38;;;9.70;99.90;;;;;;5116936;28;20497;-73
2022/02/09 17:24:15;;;;;;;23.55;14.80;;;9.70;99.90;;;;;;5116818;28;20030;-75
2022/02/09 17:26:41;;;;;;;19.67;11.63;;;9.80;99.90;;;;;;5116842;28;20483;-74
2022/02/09 17:29:07;;;;;;;19.65;10.48;;;9.70;99.90;;;;;;5116794;28;20110;-74
2022/02/09 17:53:24;;;;;;;21.83;10.38;;;9.60;99.90;;;;;;5115018;28;20497;-74
2022/02/09 17:58:26;;;;;;;18.45;10.45;;;9.40;99.90;;;;;;5116241;28;20031;-74
2022/02/09 18:00:52;;;;;;;19.58;10.05;;;9.50;99.90;;;;;;5116798;28;20035;-73
2022/02/09 18:03:19;;;;;;;26.63;14.65;;;9.50;99.90;;;;;;5115971;28;20050;-75
2022/02/09 18:05:50;;;;;;;50.00;27.63;;;9.60;99.90;;;;;;5115976;28;20499;-75
2022/02/09 18:48:28;;;;;;;105.68;50.83;;;9.30;99.90;;;;;;5115261;28;20062;-74
2022/02/09 19:04:35;;;;;;;23.73;12.75;;;9.40;99.90;;;;;;5114538;28;20078;-74
2022/02/09 19:17:44;;;;;;;21.02;12.18;;;9.30;99.90;;;;;;5114727;28;20512;-74
2022/02/09 19:20:27;;;;;;;24.15;13.60;;;9.30;99.90;;;;;;5114975;28;20517;-75
2022/02/09 19:31:11;;;;;;;23.83;12.00;;;9.40;99.90;;;;;;5114709;28;20038;-74
2022/02/09 19:42:38;;;;;;;22.33;12.57;;;9.30;99.90;;;;;;5114292;28;20034;-74
2022/02/09 19:50:13;;;;;;;25.15;14.35;;;9.30;99.90;;;;;;5079850;28;20111;-75
2022/02/09 19:55:34;;;;;;;;;;;9.30;99.90;;;;;;5114260;28;20077;-75
2022/02/09 19:58:01;;;;;;;21.75;12.77;;;9.30;99.90;;;;;;5114591;28;19903;-74
2022/02/09 20:00:31;;;;;;;21.27;12.35;;;9.30;99.90;;;;;;5112614;28;20073;-74
2022/02/09 20:02:57;;;;;;;22.60;12.50;;;9.30;99.90;;;;;;5113756;28;20054;-75
2022/02/09 20:05:24;;;;;;;26.55;13.98;;;9.30;99.90;;;;;;5113877;28;20063;-74
2022/02/09 20:07:51;;;;;;;23.33;15.05;;;9.30;99.90;;;;;;5113845;28;20385;-75
2022/02/09 20:10:17;;;;;;;23.83;13.15;;;9.30;99.90;;;;;;5113821;28;20031;-75
2022/02/09 20:12:43;;;;;;;26.80;14.52;;;9.30;99.90;;;;;;5113702;28;20016;-75
2022/02/09 20:15:11;;;;;;;26.13;14.55;;;9.20;99.90;;;;;;5113696;28;20027;-74
2022/02/09 20:17:41;;;;;;;26.90;15.38;;;9.20;99.90;;;;;;5113052;28;20027;-73
2022/02/09 20:20:10;;;;;;;26.47;15.63;;;9.10;99.90;;;;;;5114282;28;20464;-74
2022/02/09 20:22:36;;;;;;;22.30;13.50;;;9.20;99.90;;;;;;5113607;28;20027;-74
2022/02/09 20:25:03;;;;;;;26.02;13.88;;;9.20;99.90;;;;;;5113567;28;20390;-73
2022/02/09 20:27:31;;;;;;;25.80;14.57;;;9.20;99.90;;;;;;5113904;28;20050;-74
2022/02/09 20:29:57;;;;;;;25.13;15.23;;;9.20;99.90;;;;;;5113547;28;20024;-74
2022/02/09 20:32:30;;;;;;;24.13;14.77;;;9.20;99.90;;;;;;5113611;28;20166;-75
2022/02/09 20:34:58;;;;;;;29.55;17.30;;;9.30;99.90;;;;;;5113862;28;20386;-74
2022/02/09 20:37:26;;;;;;;31.15;18.25;;;9.30;99.90;;;;;;5113546;28;20482;-74
2022/02/09 20:39:59;;;;;;;55.80;26.77;;;9.30;99.90;;;;;;5113482;28;20030;-75
2022/02/09 20:42:26;;;;;;;30.92;17.25;;;9.30;99.90;;;;;;5113797;28;20498;-75
2022/02/09 20:44:58;;;;;;;74.35;32.28;;;9.30;99.90;;;;;;5113398;28;20048;-74
2022/02/09 20:47:23;;;;;;;49.15;25.92;;;9.30;99.90;;;;;;5111934;28;20020;-75
2022/02/09 20:49:49;;;;;;;56.97;27.63;;;9.30;99.90;;;;;;5113724;28;20543;-74
2022/02/09 20:52:16;;;;;;;162.68;67.40;;;9.30;99.90;;;;;;5113626;28;20031;-75
2022/02/09 20:54:45;;;;;;;70.47;35.95;;;9.30;99.90;;;;;;5113283;28;20069;-73
2022/02/09 20:57:10;;;;;;;36.08;19.98;;;9.30;99.90;;;;;;5113681;28;20042;-75
2022/02/09 20:59:42;;;;;;;45.47;25.92;;;9.20;99.90;;;;;;5113319;28;20024;-74
2022/02/09 21:04:56;;;;;;;34.15;19.65;;;9.20;99.90;;;;;;5113023;28;20044;-74
2022/02/09 21:07:37;;;;;;;;;;;9.20;99.90;;;;;;5114042;28;20030;-75
2022/02/09 21:10:37;;;;;;;60.13;31.13;;;9.20;99.90;;;;;;5113285;28;19904;-74
2022/02/09 21:12:55;;;;;;;46.90;25.40;;;9.20;99.90;;;;;;5112763;28;20027;-75
2022/02/09 21:18:16;;;;;;;30.50;17.50;;;9.10;99.90;;;;;;5113442;28;20110;-74
2022/02/09 21:30:32;;;;;;;40.58;20.63;;;9.10;99.90;;;;;;5116407;28;20027;-74
2022/02/09 21:45:47;;;;;;;49.80;28.92;;;9.10;99.90;;;;;;5116470;28;20027;-74
2022/02/09 22:28:14;;;;;;;22.13;13.60;;;9.00;99.90;;;;;;5078073;28;20037;-75
2022/02/09 22:56:52;;;;;;;25.98;15.85;;;8.90;99.90;;;;;;5114917;28;20024;-74
2022/02/09 23:01:54;;;;;;;21.73;13.20;;;8.90;99.90;;;;;;5115378;27;20098;-74
2022/02/09 23:04:38;;;;;;;22.27;15.15;;;8.80;99.90;;;;;;5114892;28;20047;-73
2022/02/09 23:07:18;;;;;;;17.55;11.75;;;8.80;99.90;;;;;;5115264;28;20016;-74
2022/02/09 23:10:13;;;;;;;22.05;15.15;;;8.90;99.90;;;;;;5114908;28;20024;-75
2022/02/09 23:12:56;;;;;;;21.65;13.15;;;8.90;99.90;;;;;;5114358;28;20401;-73
2022/02/09 23:15:42;;;;;;;17.30;11.00;;;8.90;99.90;;;;;;5115083;28;20024;-75
2022/02/09 23:25:56;;;;;;;17.88;12.13;;;8.90;99.90;;;;;;5114811;28;20031;-74
